sensor_id;sensor_type;location;lat;lon;timestamp;temperature;humidity
15983;DHT22;14442;50.196;8.096;2023-05-08T00:00:46;22.70;54.50
15983;DHT22;14442;50.196;8.096;2023-05-08T00:03:13;22.70;54.50
15983;DHT22;14442;50.196;8.096;2023-05-08T00:05:40;22.70;54.50
15983;DHT22;14442;50.196;8.096;2023-05-08T00:08:08;22.70;54.50
15983;DHT22;14442;50.196;8.096;2023-05-08T00:10:35;22.70;54.50
15983;DHT22;14442;50.196;8.096;2023-05-08T00:13:01;22.70;54.40
15983;DHT22;14442;50.196;8.096;2023-05-08T00:15:28;22.70;54.40
15983;DHT22;14442;50.196;8.096;2023-05-08T00:17:55;22.70;54.40
15983;DHT22;14442;50.196;8.096;2023-05-08T00:20:21;22.70;54.40
15983;DHT22;14442;50.196;8.096;2023-05-08T00:22:48;22.60;54.30
15983;DHT22;14442;50.196;8.096;2023-05-08T00:25:16;22.70;54.40
15983;DHT22;14442;50.196;8.096;2023-05-08T00:27:43;22.60;54.30
15983;DHT22;14442;50.196;8.096;2023-05-08T00:30:10;22.60;54.30
15983;DHT22;14442;50.196;8.096;2023-05-08T00:32:37;22.60;54.30
15983;DHT22;14442;50.196;8.096;2023-05-08T00:35:04;22.70;54.30
15983;DHT22;14442;50.196;8.096;2023-05-08T00:37:31;22.70;54.30
15983;DHT22;14442;50.196;8.096;2023-05-08T00:39:57;22.60;54.20
15983;DHT22;14442;50.196;8.096;2023-05-08T00:42:25;22.60;54.20
15983;DHT22;14442;50.196;8.096;2023-05-08T00:44:52;22.60;54.20
15983;DHT22;14442;50.196;8.096;2023-05-08T00:47:19;22.60;54.10
15983;DHT22;14442;50.196;8.096;2023-05-08T00:49:47;22.60;54.20
15983;DHT22;14442;50.196;8.096;2023-05-08T00:52:14;22.60;54.10
15983;DHT22;14442;50.196;8.096;2023-05-08T00:54:41;22.60;54.10
15983;DHT22;14442;50.196;8.096;2023-05-08T00:57:09;22.60;54.20
15983;DHT22;14442;50.196;8.096;2023-05-08T00:59:38;22.60;54.20
15983;DHT22;14442;50.196;8.096;2023-05-08T01:02:06;22.60;54.20
15983;DHT22;14442;50.196;8.096;2023-05-08T01:04:34;22.60;54.10
15983;DHT22;14442;50.196;8.096;2023-05-08T01:07:02;22.60;54.20
15983;DHT22;14442;50.196;8.096;2023-05-08T01:09:29;22.60;54.20
15983;DHT22;14442;50.196;8.096;2023-05-08T01:12:03;22.60;54.20
15983;DHT22;14442;50.196;8.096;2023-05-08T01:14:43;22.60;54.10
15983;DHT22;14442;50.196;8.096;2023-05-08T01:17:20;22.60;54.10
15983;DHT22;14442;50.196;8.096;2023-05-08T01:19:57;22.60;54.10
15983;DHT22;14442;50.196;8.096;2023-05-08T01:22:43;22.60;54.10
15983;DHT22;14442;50.196;8.096;2023-05-08T01:25:37;22.50;54.10
15983;DHT22;14442;50.196;8.096;2023-05-08T01:28:43;22.50;54.10
15983;DHT22;14442;50.196;8.096;2023-05-08T01:31:23;22.50;54.10
15983;DHT22;14442;50.196;8.096;2023-05-08T01:33:58;22.50;54.10
15983;DHT22;14442;50.196;8.096;2023-05-08T01:36:33;22.50;54.10
15983;DHT22;14442;50.196;8.096;2023-05-08T01:39:09;22.50;54.10
15983;DHT22;14442;50.196;8.096;2023-05-08T01:41:40;22.50;54.10
15983;DHT22;14442;50.196;8.096;2023-05-08T01:44:14;22.50;54.00
15983;DHT22;14442;50.196;8.096;2023-05-08T01:46:46;22.50;54.00
15983;DHT22;14442;50.196;8.096;2023-05-08T01:49:21;22.50;54.00
15983;DHT22;14442;50.196;8.096;2023-05-08T01:51:55;22.50;54.10
15983;DHT22;14442;50.196;8.096;2023-05-08T01:54:27;22.50;54.10
15983;DHT22;14442;50.196;8.096;2023-05-08T01:56:56;22.50;54.10
15983;DHT22;14442;50.196;8.096;2023-05-08T01:59:24;22.50;54.00
15983;DHT22;14442;50.196;8.096;2023-05-08T02:01:55;22.50;54.00
15983;DHT22;14442;50.196;8.096;2023-05-08T02:04:26;22.50;54.00
15983;DHT22;14442;50.196;8.096;2023-05-08T02:06:54;22.50;54.10
15983;DHT22;14442;50.196;8.096;2023-05-08T02:09:23;22.50;54.00
15983;DHT22;14442;50.196;8.096;2023-05-08T02:11:52;22.50;54.00
15983;DHT22;14442;50.196;8.096;2023-05-08T02:14:20;22.50;53.90
15983;DHT22;14442;50.196;8.096;2023-05-08T02:16:48;22.50;53.90
15983;DHT22;14442;50.196;8.096;2023-05-08T02:19:16;22.50;53.90
15983;DHT22;14442;50.196;8.096;2023-05-08T02:21:45;22.50;53.90
15983;DHT22;14442;50.196;8.096;2023-05-08T02:24:12;22.50;53.90
15983;DHT22;14442;50.196;8.096;2023-05-08T02:26:40;22.50;53.90
15983;DHT22;14442;50.196;8.096;2023-05-08T02:29:08;22.40;53.80
15983;DHT22;14442;50.196;8.096;2023-05-08T02:31:35;22.50;53.80
15983;DHT22;14442;50.196;8.096;2023-05-08T02:34:03;22.40;53.80
15983;DHT22;14442;50.196;8.096;2023-05-08T02:36:31;22.40;53.80
15983;DHT22;14442;50.196;8.096;2023-05-08T02:39:00;22.40;53.80
15983;DHT22;14442;50.196;8.096;2023-05-08T02:41:29;22.40;53.80
15983;DHT22;14442;50.196;8.096;2023-05-08T02:43:57;22.40;53.90
15983;DHT22;14442;50.196;8.096;2023-05-08T02:46:26;22.40;53.90
15983;DHT22;14442;50.196;8.096;2023-05-08T02:48:59;22.40;53.80
15983;DHT22;14442;50.196;8.096;2023-05-08T02:51:33;22.40;53.80
15983;DHT22;14442;50.196;8.096;2023-05-08T02:54:09;22.40;53.70
15983;DHT22;14442;50.196;8.096;2023-05-08T02:56:39;22.40;53.80
15983;DHT22;14442;50.196;8.096;2023-05-08T02:59:13;22.40;53.80
15983;DHT22;14442;50.196;8.096;2023-05-08T03:01:48;22.40;53.80
15983;DHT22;14442;50.196;8.096;2023-05-08T03:04:23;22.40;54.50
15983;DHT22;14442;50.196;8.096;2023-05-08T03:06:53;22.40;53.80
15983;DHT22;14442;50.196;8.096;2023-05-08T03:09:25;22.40;53.80
15983;DHT22;14442;50.196;8.096;2023-05-08T03:11:58;22.40;53.90
15983;DHT22;14442;50.196;8.096;2023-05-08T03:14:29;22.40;53.80
15983;DHT22;14442;50.196;8.096;2023-05-08T03:16:58;22.40;53.80
15983;DHT22;14442;50.196;8.096;2023-05-08T03:19:28;22.30;53.90
15983;DHT22;14442;50.196;8.096;2023-05-08T03:21:57;22.30;53.80
15983;DHT22;14442;50.196;8.096;2023-05-08T03:24:28;22.40;53.90
15983;DHT22;14442;50.196;8.096;2023-05-08T03:26:56;22.40;53.80
15983;DHT22;14442;50.196;8.096;2023-05-08T03:29:24;22.30;53.80
15983;DHT22;14442;50.196;8.096;2023-05-08T03:31:53;22.30;53.80
15983;DHT22;14442;50.196;8.096;2023-05-08T03:34:21;22.30;53.70
15983;DHT22;14442;50.196;8.096;2023-05-08T03:36:49;22.30;53.80
15983;DHT22;14442;50.196;8.096;2023-05-08T03:39:16;22.30;53.80
15983;DHT22;14442;50.196;8.096;2023-05-08T03:41:44;22.30;53.80
15983;DHT22;14442;50.196;8.096;2023-05-08T03:44:12;22.30;53.70
15983;DHT22;14442;50.196;8.096;2023-05-08T03:46:41;22.30;53.70
15983;DHT22;14442;50.196;8.096;2023-05-08T03:49:08;22.30;53.80
15983;DHT22;14442;50.196;8.096;2023-05-08T03:51:37;22.30;53.70
15983;DHT22;14442;50.196;8.096;2023-05-08T03:54:04;22.30;53.80
15983;DHT22;14442;50.196;8.096;2023-05-08T03:56:30;22.30;53.70
15983;DHT22;14442;50.196;8.096;2023-05-08T03:59:05;22.30;53.70
15983;DHT22;14442;50.196;8.096;2023-05-08T04:01:37;22.30;53.70
15983;DHT22;14442;50.196;8.096;2023-05-08T04:04:09;22.30;53.70
15983;DHT22;14442;50.196;8.096;2023-05-08T04:06:43;22.30;53.70
15983;DHT22;14442;50.196;8.096;2023-05-08T04:09:16;22.30;53.70
15983;DHT22;14442;50.196;8.096;2023-05-08T04:11:50;22.30;53.60
15983;DHT22;14442;50.196;8.096;2023-05-08T04:14:20;22.20;53.50
15983;DHT22;14442;50.196;8.096;2023-05-08T04:16:51;22.30;53.60
15983;DHT22;14442;50.196;8.096;2023-05-08T04:19:22;22.30;53.60
15983;DHT22;14442;50.196;8.096;2023-05-08T04:21:50;22.20;53.50
15983;DHT22;14442;50.196;8.096;2023-05-08T04:24:21;22.30;53.60
15983;DHT22;14442;50.196;8.096;2023-05-08T04:26:48;22.30;53.60
15983;DHT22;14442;50.196;8.096;2023-05-08T04:29:16;22.20;53.50
15983;DHT22;14442;50.196;8.096;2023-05-08T04:31:44;22.20;53.50
15983;DHT22;14442;50.196;8.096;2023-05-08T04:34:12;22.20;53.50
15983;DHT22;14442;50.196;8.096;2023-05-08T04:36:39;22.20;53.50
15983;DHT22;14442;50.196;8.096;2023-05-08T04:39:06;22.20;53.50
15983;DHT22;14442;50.196;8.096;2023-05-08T04:41:32;22.20;53.50
15983;DHT22;14442;50.196;8.096;2023-05-08T04:43:59;22.20;53.50
15983;DHT22;14442;50.196;8.096;2023-05-08T04:46:26;22.20;53.50
15983;DHT22;14442;50.196;8.096;2023-05-08T04:48:54;22.20;53.50
15983;DHT22;14442;50.196;8.096;2023-05-08T04:51:21;22.20;53.50
15983;DHT22;14442;50.196;8.096;2023-05-08T04:53:47;22.20;54.10
15983;DHT22;14442;50.196;8.096;2023-05-08T04:56:14;22.10;53.40
15983;DHT22;14442;50.196;8.096;2023-05-08T04:58:41;22.20;53.50
15983;DHT22;14442;50.196;8.096;2023-05-08T05:01:07;22.20;53.50
15983;DHT22;14442;50.196;8.096;2023-05-08T05:03:34;22.20;53.50
15983;DHT22;14442;50.196;8.096;2023-05-08T05:06:02;22.10;53.50
15983;DHT22;14442;50.196;8.096;2023-05-08T05:08:29;22.20;53.50
15983;DHT22;14442;50.196;8.096;2023-05-08T05:10:55;22.20;53.50
15983;DHT22;14442;50.196;8.096;2023-05-08T05:13:22;22.20;53.50
15983;DHT22;14442;50.196;8.096;2023-05-08T05:15:49;22.20;53.50
15983;DHT22;14442;50.196;8.096;2023-05-08T05:18:18;22.10;53.40
15983;DHT22;14442;50.196;8.096;2023-05-08T05:20:45;22.10;53.40
15983;DHT22;14442;50.196;8.096;2023-05-08T05:23:13;22.10;53.40
15983;DHT22;14442;50.196;8.096;2023-05-08T05:25:40;22.10;53.40
15983;DHT22;14442;50.196;8.096;2023-05-08T05:28:06;22.10;53.40
15983;DHT22;14442;50.196;8.096;2023-05-08T05:30:33;22.10;53.40
15983;DHT22;14442;50.196;8.096;2023-05-08T05:33:00;22.10;53.40
15983;DHT22;14442;50.196;8.096;2023-05-08T05:35:26;22.10;53.40
15983;DHT22;14442;50.196;8.096;2023-05-08T05:37:53;22.10;53.40
15983;DHT22;14442;50.196;8.096;2023-05-08T05:40:21;22.10;53.40
15983;DHT22;14442;50.196;8.096;2023-05-08T05:42:48;22.10;53.40
15983;DHT22;14442;50.196;8.096;2023-05-08T05:45:15;22.10;53.40
15983;DHT22;14442;50.196;8.096;2023-05-08T05:47:44;22.10;53.40
15983;DHT22;14442;50.196;8.096;2023-05-08T05:50:15;22.10;53.40
15983;DHT22;14442;50.196;8.096;2023-05-08T05:52:43;22.10;53.40
15983;DHT22;14442;50.196;8.096;2023-05-08T05:55:10;22.10;53.40
15983;DHT22;14442;50.196;8.096;2023-05-08T05:57:38;22.10;53.40
15983;DHT22;14442;50.196;8.096;2023-05-08T06:00:05;22.10;53.40
15983;DHT22;14442;50.196;8.096;2023-05-08T06:02:34;22.10;53.40
15983;DHT22;14442;50.196;8.096;2023-05-08T06:05:01;22.10;53.30
15983;DHT22;14442;50.196;8.096;2023-05-08T06:07:28;22.10;53.40
15983;DHT22;14442;50.196;8.096;2023-05-08T06:09:54;22.10;53.50
15983;DHT22;14442;50.196;8.096;2023-05-08T06:12:21;22.10;53.40
15983;DHT22;14442;50.196;8.096;2023-05-08T06:14:50;22.10;53.40
15983;DHT22;14442;50.196;8.096;2023-05-08T06:17:17;22.10;53.40
15983;DHT22;14442;50.196;8.096;2023-05-08T06:19:44;22.10;53.40
15983;DHT22;14442;50.196;8.096;2023-05-08T06:22:14;22.10;53.30
15983;DHT22;14442;50.196;8.096;2023-05-08T06:24:41;22.10;53.40
15983;DHT22;14442;50.196;8.096;2023-05-08T06:27:08;22.10;53.30
15983;DHT22;14442;50.196;8.096;2023-05-08T06:29:35;22.10;53.30
15983;DHT22;14442;50.196;8.096;2023-05-08T06:32:03;22.10;53.30
15983;DHT22;14442;50.196;8.096;2023-05-08T06:34:30;22.10;53.30
15983;DHT22;14442;50.196;8.096;2023-05-08T06:36:56;22.10;53.40
15983;DHT22;14442;50.196;8.096;2023-05-08T06:39:23;22.10;53.30
15983;DHT22;14442;50.196;8.096;2023-05-08T06:41:50;22.10;53.50
15983;DHT22;14442;50.196;8.096;2023-05-08T06:44:16;22.10;53.40
15983;DHT22;14442;50.196;8.096;2023-05-08T06:46:43;22.10;53.70
15983;DHT22;14442;50.196;8.096;2023-05-08T06:49:11;22.20;53.50
15983;DHT22;14442;50.196;8.096;2023-05-08T06:51:38;22.20;53.40
15983;DHT22;14442;50.196;8.096;2023-05-08T06:54:04;22.20;53.40
15983;DHT22;14442;50.196;8.096;2023-05-08T06:56:32;22.20;53.40
15983;DHT22;14442;50.196;8.096;2023-05-08T06:58:59;22.20;53.50
15983;DHT22;14442;50.196;8.096;2023-05-08T07:01:26;22.20;54.60
15983;DHT22;14442;50.196;8.096;2023-05-08T07:03:53;22.30;54.40
15983;DHT22;14442;50.196;8.096;2023-05-08T07:06:21;22.30;54.30
15983;DHT22;14442;50.196;8.096;2023-05-08T07:08:48;22.30;54.20
15983;DHT22;14442;50.196;8.096;2023-05-08T07:11:14;22.30;54.30
15983;DHT22;14442;50.196;8.096;2023-05-08T07:13:41;22.30;54.20
15983;DHT22;14442;50.196;8.096;2023-05-08T07:16:10;22.30;54.20
15983;DHT22;14442;50.196;8.096;2023-05-08T07:18:37;22.30;54.10
15983;DHT22;14442;50.196;8.096;2023-05-08T07:21:04;22.30;54.20
15983;DHT22;14442;50.196;8.096;2023-05-08T07:23:32;22.30;54.30
15983;DHT22;14442;50.196;8.096;2023-05-08T07:25:58;22.30;54.10
15983;DHT22;14442;50.196;8.096;2023-05-08T07:28:25;22.30;54.50
15983;DHT22;14442;50.196;8.096;2023-05-08T07:30:52;22.30;54.50
15983;DHT22;14442;50.196;8.096;2023-05-08T07:33:18;22.40;55.00
15983;DHT22;14442;50.196;8.096;2023-05-08T07:35:45;22.40;54.90
15983;DHT22;14442;50.196;8.096;2023-05-08T07:38:12;22.40;54.80
15983;DHT22;14442;50.196;8.096;2023-05-08T07:40:40;22.30;54.60
15983;DHT22;14442;50.196;8.096;2023-05-08T07:43:06;22.40;54.70
15983;DHT22;14442;50.196;8.096;2023-05-08T07:45:34;22.40;54.50
15983;DHT22;14442;50.196;8.096;2023-05-08T07:48:01;22.40;54.40
15983;DHT22;14442;50.196;8.096;2023-05-08T07:50:28;22.30;54.30
15983;DHT22;14442;50.196;8.096;2023-05-08T07:52:54;22.40;54.40
15983;DHT22;14442;50.196;8.096;2023-05-08T07:55:21;22.40;54.60
15983;DHT22;14442;50.196;8.096;2023-05-08T07:57:49;22.40;54.80
15983;DHT22;14442;50.196;8.096;2023-05-08T08:00:17;22.40;54.80
15983;DHT22;14442;50.196;8.096;2023-05-08T08:02:44;22.40;54.90
15983;DHT22;14442;50.196;8.096;2023-05-08T08:05:11;22.40;54.90
15983;DHT22;14442;50.196;8.096;2023-05-08T08:07:37;22.50;55.20
15983;DHT22;14442;50.196;8.096;2023-05-08T08:10:05;22.40;55.10
15983;DHT22;14442;50.196;8.096;2023-05-08T08:12:32;22.40;55.10
15983;DHT22;14442;50.196;8.096;2023-05-08T08:15:01;22.40;54.60
15983;DHT22;14442;50.196;8.096;2023-05-08T08:17:27;22.00;54.40
15983;DHT22;14442;50.196;8.096;2023-05-08T08:19:54;21.50;55.30
15983;DHT22;14442;50.196;8.096;2023-05-08T08:22:21;21.10;55.90
15983;DHT22;14442;50.196;8.096;2023-05-08T08:24:48;21.40;56.40
15983;DHT22;14442;50.196;8.096;2023-05-08T08:27:14;21.60;55.80
15983;DHT22;14442;50.196;8.096;2023-05-08T08:29:41;21.80;55.30
15983;DHT22;14442;50.196;8.096;2023-05-08T08:32:09;21.90;55.00
15983;DHT22;14442;50.196;8.096;2023-05-08T08:34:36;22.00;55.00
15983;DHT22;14442;50.196;8.096;2023-05-08T08:37:04;22.10;55.00
15983;DHT22;14442;50.196;8.096;2023-05-08T08:39:31;22.20;55.00
15983;DHT22;14442;50.196;8.096;2023-05-08T08:41:58;22.20;54.80
15983;DHT22;14442;50.196;8.096;2023-05-08T08:44:25;22.20;54.90
15983;DHT22;14442;50.196;8.096;2023-05-08T08:46:52;22.30;55.00
15983;DHT22;14442;50.196;8.096;2023-05-08T08:49:24;22.30;55.00
15983;DHT22;14442;50.196;8.096;2023-05-08T08:51:54;22.30;55.10
15983;DHT22;14442;50.196;8.096;2023-05-08T08:54:23;22.30;55.80
15983;DHT22;14442;50.196;8.096;2023-05-08T08:56:54;22.30;55.10
15983;DHT22;14442;50.196;8.096;2023-05-08T08:59:24;22.30;55.20
15983;DHT22;14442;50.196;8.096;2023-05-08T09:01:55;22.30;55.10
15983;DHT22;14442;50.196;8.096;2023-05-08T09:04:23;22.40;55.30
15983;DHT22;14442;50.196;8.096;2023-05-08T09:06:52;22.40;55.90
15983;DHT22;14442;50.196;8.096;2023-05-08T09:09:19;22.40;55.30
15983;DHT22;14442;50.196;8.096;2023-05-08T09:11:47;22.40;55.10
15983;DHT22;14442;50.196;8.096;2023-05-08T09:14:14;22.40;55.10
15983;DHT22;14442;50.196;8.096;2023-05-08T09:16:41;22.40;55.10
15983;DHT22;14442;50.196;8.096;2023-05-08T09:19:08;22.40;55.20
15983;DHT22;14442;50.196;8.096;2023-05-08T09:21:37;22.40;55.10
15983;DHT22;14442;50.196;8.096;2023-05-08T09:24:04;22.50;55.10
15983;DHT22;14442;50.196;8.096;2023-05-08T09:26:33;22.50;55.00
15983;DHT22;14442;50.196;8.096;2023-05-08T09:29:10;22.50;54.90
15983;DHT22;14442;50.196;8.096;2023-05-08T09:31:38;22.50;55.00
15983;DHT22;14442;50.196;8.096;2023-05-08T09:34:05;22.50;55.00
15983;DHT22;14442;50.196;8.096;2023-05-08T09:36:32;22.50;54.90
15983;DHT22;14442;50.196;8.096;2023-05-08T09:39:01;22.60;55.00
15983;DHT22;14442;50.196;8.096;2023-05-08T09:41:28;22.50;54.80
15983;DHT22;14442;50.196;8.096;2023-05-08T09:44:03;22.60;54.80
15983;DHT22;14442;50.196;8.096;2023-05-08T09:46:30;22.60;54.60
15983;DHT22;14442;50.196;8.096;2023-05-08T09:49:00;22.60;54.70
15983;DHT22;14442;50.196;8.096;2023-05-08T09:51:28;22.60;54.80
15983;DHT22;14442;50.196;8.096;2023-05-08T09:53:56;22.70;54.90
15983;DHT22;14442;50.196;8.096;2023-05-08T09:56:34;22.60;55.00
15983;DHT22;14442;50.196;8.096;2023-05-08T09:59:03;22.60;54.90
15983;DHT22;14442;50.196;8.096;2023-05-08T10:01:32;22.70;54.90
15983;DHT22;14442;50.196;8.096;2023-05-08T10:03:59;22.70;54.80
15983;DHT22;14442;50.196;8.096;2023-05-08T10:06:26;22.70;54.70
15983;DHT22;14442;50.196;8.096;2023-05-08T10:09:07;22.70;55.10
15983;DHT22;14442;50.196;8.096;2023-05-08T10:11:36;22.70;54.90
15983;DHT22;14442;50.196;8.096;2023-05-08T10:14:03;22.70;54.90
15983;DHT22;14442;50.196;8.096;2023-05-08T10:16:30;22.70;54.90
15983;DHT22;14442;50.196;8.096;2023-05-08T10:19:07;22.70;54.90
15983;DHT22;14442;50.196;8.096;2023-05-08T10:21:35;22.70;54.90
15983;DHT22;14442;50.196;8.096;2023-05-08T10:24:05;22.70;54.90
15983;DHT22;14442;50.196;8.096;2023-05-08T10:26:37;22.70;54.90
15983;DHT22;14442;50.196;8.096;2023-05-08T10:29:07;22.70;55.00
15983;DHT22;14442;50.196;8.096;2023-05-08T10:31:39;22.70;55.10
15983;DHT22;14442;50.196;8.096;2023-05-08T10:34:13;22.70;54.90
15983;DHT22;14442;50.196;8.096;2023-05-08T10:36:41;22.70;54.80
15983;DHT22;14442;50.196;8.096;2023-05-08T10:39:09;22.70;54.80
15983;DHT22;14442;50.196;8.096;2023-05-08T10:41:38;22.70;54.80
15983;DHT22;14442;50.196;8.096;2023-05-08T10:44:05;22.70;54.80
15983;DHT22;14442;50.196;8.096;2023-05-08T10:46:38;22.70;54.70
15983;DHT22;14442;50.196;8.096;2023-05-08T10:49:13;22.70;54.80
15983;DHT22;14442;50.196;8.096;2023-05-08T10:51:51;22.70;54.80
15983;DHT22;14442;50.196;8.096;2023-05-08T10:54:25;22.70;54.70
15983;DHT22;14442;50.196;8.096;2023-05-08T10:57:06;22.70;55.00
15983;DHT22;14442;50.196;8.096;2023-05-08T10:59:34;22.70;55.10
15983;DHT22;14442;50.196;8.096;2023-05-08T11:02:03;22.70;54.90
15983;DHT22;14442;50.196;8.096;2023-05-08T11:04:30;22.70;55.30
15983;DHT22;14442;50.196;8.096;2023-05-08T11:06:57;22.70;55.10
15983;DHT22;14442;50.196;8.096;2023-05-08T11:09:27;22.70;54.90
15983;DHT22;14442;50.196;8.096;2023-05-08T11:12:06;22.80;55.40
15983;DHT22;14442;50.196;8.096;2023-05-08T11:14:34;22.70;55.30
15983;DHT22;14442;50.196;8.096;2023-05-08T11:17:03;22.70;55.10
15983;DHT22;14442;50.196;8.096;2023-05-08T11:19:31;22.70;55.10
15983;DHT22;14442;50.196;8.096;2023-05-08T11:22:20;22.70;55.00
15983;DHT22;14442;50.196;8.096;2023-05-08T11:24:49;22.70;55.10
15983;DHT22;14442;50.196;8.096;2023-05-08T11:27:17;22.70;54.90
15983;DHT22;14442;50.196;8.096;2023-05-08T11:29:44;22.70;54.90
15983;DHT22;14442;50.196;8.096;2023-05-08T11:32:11;22.70;55.10
15983;DHT22;14442;50.196;8.096;2023-05-08T11:34:47;22.60;55.10
15983;DHT22;14442;50.196;8.096;2023-05-08T11:37:17;22.70;55.00
15983;DHT22;14442;50.196;8.096;2023-05-08T11:39:44;22.70;55.60
15983;DHT22;14442;50.196;8.096;2023-05-08T11:42:34;22.60;55.00
15983;DHT22;14442;50.196;8.096;2023-05-08T11:45:04;22.60;55.00
15983;DHT22;14442;50.196;8.096;2023-05-08T11:47:35;22.60;55.00
15983;DHT22;14442;50.196;8.096;2023-05-08T11:50:03;22.60;55.30
15983;DHT22;14442;50.196;8.096;2023-05-08T11:52:30;22.70;55.40
15983;DHT22;14442;50.196;8.096;2023-05-08T11:55:02;22.70;55.20
15983;DHT22;14442;50.196;8.096;2023-05-08T11:57:30;22.60;55.10
15983;DHT22;14442;50.196;8.096;2023-05-08T12:00:03;22.60;55.10
15983;DHT22;14442;50.196;8.096;2023-05-08T12:02:36;22.60;55.00
15983;DHT22;14442;50.196;8.096;2023-05-08T12:05:04;22.50;54.90
15983;DHT22;14442;50.196;8.096;2023-05-08T12:07:31;22.50;55.30
15983;DHT22;14442;50.196;8.096;2023-05-08T12:10:00;22.50;55.30
15983;DHT22;14442;50.196;8.096;2023-05-08T12:12:35;22.40;55.20
15983;DHT22;14442;50.196;8.096;2023-05-08T12:15:06;22.40;55.10
15983;DHT22;14442;50.196;8.096;2023-05-08T12:17:33;22.40;55.20
15983;DHT22;14442;50.196;8.096;2023-05-08T12:20:09;22.40;55.30
15983;DHT22;14442;50.196;8.096;2023-05-08T12:22:37;22.40;55.30
15983;DHT22;14442;50.196;8.096;2023-05-08T12:25:05;22.50;55.30
15983;DHT22;14442;50.196;8.096;2023-05-08T12:27:32;22.50;55.20
15983;DHT22;14442;50.196;8.096;2023-05-08T12:29:59;22.50;55.00
15983;DHT22;14442;50.196;8.096;2023-05-08T12:32:28;22.50;55.30
15983;DHT22;14442;50.196;8.096;2023-05-08T12:34:55;22.50;55.20
15983;DHT22;14442;50.196;8.096;2023-05-08T12:37:23;22.50;55.40
15983;DHT22;14442;50.196;8.096;2023-05-08T12:39:52;22.50;55.50
15983;DHT22;14442;50.196;8.096;2023-05-08T12:42:18;22.50;55.60
15983;DHT22;14442;50.196;8.096;2023-05-08T12:44:49;22.50;55.80
15983;DHT22;14442;50.196;8.096;2023-05-08T12:47:18;22.50;56.00
15983;DHT22;14442;50.196;8.096;2023-05-08T12:49:46;22.60;56.50
15983;DHT22;14442;50.196;8.096;2023-05-08T12:52:14;22.60;56.40
15983;DHT22;14442;50.196;8.096;2023-05-08T12:54:45;22.70;56.80
15983;DHT22;14442;50.196;8.096;2023-05-08T12:57:13;22.70;56.90
15983;DHT22;14442;50.196;8.096;2023-05-08T12:59:40;22.70;56.70
15983;DHT22;14442;50.196;8.096;2023-05-08T13:02:15;22.70;56.70
15983;DHT22;14442;50.196;8.096;2023-05-08T13:04:42;22.70;56.40
15983;DHT22;14442;50.196;8.096;2023-05-08T13:07:10;22.70;56.30
15983;DHT22;14442;50.196;8.096;2023-05-08T13:09:37;22.70;56.40
15983;DHT22;14442;50.196;8.096;2023-05-08T13:12:04;22.70;56.50
15983;DHT22;14442;50.196;8.096;2023-05-08T13:14:32;22.60;56.10
15983;DHT22;14442;50.196;8.096;2023-05-08T13:16:58;22.60;56.00
15983;DHT22;14442;50.196;8.096;2023-05-08T13:19:25;22.50;55.80
15983;DHT22;14442;50.196;8.096;2023-05-08T13:21:52;22.40;56.30
15983;DHT22;14442;50.196;8.096;2023-05-08T13:24:20;22.30;56.50
15983;DHT22;14442;50.196;8.096;2023-05-08T13:26:47;22.40;56.80
15983;DHT22;14442;50.196;8.096;2023-05-08T13:29:14;22.30;56.60
15983;DHT22;14442;50.196;8.096;2023-05-08T13:31:40;22.30;57.00
15983;DHT22;14442;50.196;8.096;2023-05-08T13:34:07;22.20;57.10
15983;DHT22;14442;50.196;8.096;2023-05-08T13:36:34;22.30;57.30
15983;DHT22;14442;50.196;8.096;2023-05-08T13:39:00;22.20;57.40
15983;DHT22;14442;50.196;8.096;2023-05-08T13:41:28;22.10;57.30
15983;DHT22;14442;50.196;8.096;2023-05-08T13:43:55;22.10;58.20
15983;DHT22;14442;50.196;8.096;2023-05-08T13:46:22;22.10;58.10
15983;DHT22;14442;50.196;8.096;2023-05-08T13:48:49;22.20;57.50
15983;DHT22;14442;50.196;8.096;2023-05-08T13:51:16;22.10;58.10
15983;DHT22;14442;50.196;8.096;2023-05-08T13:53:43;22.20;58.40
15983;DHT22;14442;50.196;8.096;2023-05-08T13:56:09;22.20;58.50
15983;DHT22;14442;50.196;8.096;2023-05-08T13:58:37;22.20;58.10
15983;DHT22;14442;50.196;8.096;2023-05-08T14:01:04;22.20;57.60
15983;DHT22;14442;50.196;8.096;2023-05-08T14:03:31;22.30;58.00
15983;DHT22;14442;50.196;8.096;2023-05-08T14:05:58;22.30;57.90
15983;DHT22;14442;50.196;8.096;2023-05-08T14:08:24;22.30;57.80
15983;DHT22;14442;50.196;8.096;2023-05-08T14:10:51;22.30;57.80
15983;DHT22;14442;50.196;8.096;2023-05-08T14:13:18;22.30;57.50
15983;DHT22;14442;50.196;8.096;2023-05-08T14:15:46;22.10;57.30
15983;DHT22;14442;50.196;8.096;2023-05-08T14:18:13;22.10;57.90
15983;DHT22;14442;50.196;8.096;2023-05-08T14:20:39;21.90;58.50
15983;DHT22;14442;50.196;8.096;2023-05-08T14:23:06;21.90;58.40
15983;DHT22;14442;50.196;8.096;2023-05-08T14:25:32;22.10;58.40
15983;DHT22;14442;50.196;8.096;2023-05-08T14:27:59;22.10;58.00
15983;DHT22;14442;50.196;8.096;2023-05-08T14:30:26;22.10;58.00
15983;DHT22;14442;50.196;8.096;2023-05-08T14:32:54;22.10;58.20
15983;DHT22;14442;50.196;8.096;2023-05-08T14:35:20;21.90;58.40
15983;DHT22;14442;50.196;8.096;2023-05-08T14:37:47;21.80;58.90
15983;DHT22;14442;50.196;8.096;2023-05-08T14:40:14;21.80;59.10
15983;DHT22;14442;50.196;8.096;2023-05-08T14:42:40;21.80;58.90
15983;DHT22;14442;50.196;8.096;2023-05-08T14:45:08;21.70;58.80
15983;DHT22;14442;50.196;8.096;2023-05-08T14:47:34;21.90;59.00
15983;DHT22;14442;50.196;8.096;2023-05-08T14:50:03;21.90;58.80
15983;DHT22;14442;50.196;8.096;2023-05-08T14:52:30;22.00;58.60
15983;DHT22;14442;50.196;8.096;2023-05-08T14:54:56;22.00;58.50
15983;DHT22;14442;50.196;8.096;2023-05-08T14:57:23;22.00;58.30
15983;DHT22;14442;50.196;8.096;2023-05-08T14:59:50;22.10;58.50
15983;DHT22;14442;50.196;8.096;2023-05-08T15:02:16;22.10;58.60
15983;DHT22;14442;50.196;8.096;2023-05-08T15:04:45;22.10;58.60
15983;DHT22;14442;50.196;8.096;2023-05-08T15:07:13;22.00;58.60
15983;DHT22;14442;50.196;8.096;2023-05-08T15:09:39;22.10;58.60
15983;DHT22;14442;50.196;8.096;2023-05-08T15:12:06;22.10;58.60
15983;DHT22;14442;50.196;8.096;2023-05-08T15:14:33;21.90;58.60
15983;DHT22;14442;50.196;8.096;2023-05-08T15:16:59;22.00;58.90
15983;DHT22;14442;50.196;8.096;2023-05-08T15:19:26;22.00;58.90
15983;DHT22;14442;50.196;8.096;2023-05-08T15:21:52;22.10;58.90
15983;DHT22;14442;50.196;8.096;2023-05-08T15:24:20;22.10;58.70
15983;DHT22;14442;50.196;8.096;2023-05-08T15:26:47;22.10;58.70
15983;DHT22;14442;50.196;8.096;2023-05-08T15:29:14;22.10;58.80
15983;DHT22;14442;50.196;8.096;2023-05-08T15:31:41;22.10;58.70
15983;DHT22;14442;50.196;8.096;2023-05-08T15:34:07;22.10;58.50
15983;DHT22;14442;50.196;8.096;2023-05-08T15:36:34;22.20;58.50
15983;DHT22;14442;50.196;8.096;2023-05-08T15:39:01;22.10;58.60